Řízení letového provozu České republiky
Letiste: LKNA Aktualizace: 18.12.2018 17:00:06  UTC
 METAR LKNA 18.12. 17:00 ...
METAR LKNA 181700Z 10003KT 060V120 7000 SCT009 BKN014 01/M00 Q1026 NOSIG RMK GRN GRN=
 TAF LKNA 18.12. 11:00 ...
TAF LKNA 181100Z 1812/1912 VRB02KT 9999 SCT040      BECMG 1816/1818 15004KT 3000 BR BKN010      BECMG 1818/1820 15010KT 0800 FZFG OVC002      PROB40 1820/1910 0200 FZFG SN VV001=